SIA1001 VCBI-VRMM
Flight info
| Callsign | SIA1001 |
|---|---|
| Flight time | N/A |
| Altitude | 31000 |
| Route | VCBI/22 N0437F400 DCT LALUM DCT HOKEY HOKE1B VRMM/18 |
| Aircraft | B737/M-SIA1001/SIA |
Departure
| Time | 2026-04-30 08:20 |
|---|---|
| Airport | Bandaranaike International Colombo Airport (VCBI) |
Arrival
| Time | N/A |
|---|---|
| Airport | Velana International Airport (VRMM) |
| Time | Latitude | Longitude | Altitude | Speed | Heading |
|---|---|---|---|---|---|
| 2026-04-30 08:10 | 7.17618 | 79.88419 | 26 ft | 0 kts | 37° |
| 2026-04-30 08:11 | 7.17609 | 79.88412 | 26 ft | 3 kts | 37° |
| 2026-04-30 08:12 | 7.17594 | 79.88401 | 26 ft | 3 kts | 37° |
| 2026-04-30 08:12 | 7.17579 | 79.88389 | 26 ft | 3 kts | 37° |
| 2026-04-30 08:12 | 7.17565 | 79.88378 | 26 ft | 3 kts | 37° |
| 2026-04-30 08:12 | 7.17551 | 79.88367 | 26 ft | 3 kts | 37° |
| 2026-04-30 08:13 | 7.17536 | 79.88356 | 26 ft | 3 kts | 37° |
| 2026-04-30 08:13 | 7.17532 | 79.88353 | 26 ft | 0 kts | 37° |
| 2026-04-30 08:14 | 7.17539 | 79.88354 | 26 ft | 2 kts | 5° |
| 2026-04-30 08:15 | 7.17559 | 79.88340 | 26 ft | 6 kts | 316° |
| 2026-04-30 08:15 | 7.17598 | 79.88287 | 26 ft | 12 kts | 307° |
| 2026-04-30 08:15 | 7.17680 | 79.88268 | 27 ft | 16 kts | 33° |
| 2026-04-30 08:15 | 7.17784 | 79.88350 | 27 ft | 22 kts | 38° |
| 2026-04-30 08:16 | 7.17922 | 79.88453 | 27 ft | 27 kts | 37° |
| 2026-04-30 08:16 | 7.18069 | 79.88566 | 30 ft | 26 kts | 37° |
| 2026-04-30 08:16 | 7.18211 | 79.88673 | 26 ft | 24 kts | 37° |
| 2026-04-30 08:16 | 7.18341 | 79.88771 | 26 ft | 23 kts | 37° |
| 2026-04-30 08:17 | 7.18467 | 79.88867 | 27 ft | 22 kts | 37° |
| 2026-04-30 08:17 | 7.18588 | 79.88960 | 27 ft | 22 kts | 37° |
| 2026-04-30 08:17 | 7.18715 | 79.89060 | 27 ft | 24 kts | 38° |
| 2026-04-30 08:17 | 7.18843 | 79.89158 | 27 ft | 23 kts | 37° |
| 2026-04-30 08:18 | 7.18966 | 79.89251 | 26 ft | 22 kts | 37° |
| 2026-04-30 08:18 | 7.19087 | 79.89343 | 27 ft | 21 kts | 37° |
| 2026-04-30 08:18 | 7.19184 | 79.89409 | 26 ft | 12 kts | 11° |
| 2026-04-30 08:18 | 7.19248 | 79.89359 | 28 ft | 12 kts | 307° |
| 2026-04-30 08:19 | 7.19286 | 79.89287 | 26 ft | 12 kts | 269° |
| 2026-04-30 08:19 | 7.19255 | 79.89244 | 26 ft | 0 kts | 217° |
| 2026-04-30 08:19 | 7.19244 | 79.89236 | 26 ft | 14 kts | 217° |
| 2026-04-30 08:19 | 7.18966 | 79.89024 | 28 ft | 85 kts | 217° |
| 2026-04-30 08:20 | 7.18327 | 79.88534 | 30 ft | 141 kts | 218° |
| 2026-04-30 08:20 | 7.17522 | 79.87910 | 548 ft | 148 kts | 217° |
| 2026-04-30 08:20 | 7.16685 | 79.87274 | 1148 ft | 157 kts | 218° |
| 2026-04-30 08:20 | 7.15772 | 79.86576 | 1597 ft | 173 kts | 217° |
| 2026-04-30 08:21 | 7.14788 | 79.85821 | 2143 ft | 181 kts | 216° |
| 2026-04-30 08:21 | 7.13772 | 79.85042 | 2723 ft | 185 kts | 217° |
| 2026-04-30 08:21 | 7.12754 | 79.84259 | 3297 ft | 187 kts | 216° |
| 2026-04-30 08:21 | 7.11711 | 79.83459 | 3907 ft | 188 kts | 216° |
| 2026-04-30 08:22 | 7.10672 | 79.82661 | 4502 ft | 189 kts | 216° |
| 2026-04-30 08:22 | 7.09972 | 79.82123 | 4881 ft | 190 kts | 217° |
| 2026-04-30 08:22 | 7.07480 | 79.80209 | 6114 ft | 196 kts | 216° |
| 2026-04-30 08:24 | 6.97974 | 79.72909 | 9703 ft | 296 kts | 216° |
| 2026-04-30 08:24 | 6.96320 | 79.71638 | 10437 ft | 306 kts | 216° |
| 2026-04-30 08:25 | 6.94545 | 79.70276 | 10697 ft | 334 kts | 216° |
| 2026-04-30 08:25 | 6.92622 | 79.68800 | 11020 ft | 355 kts | 216° |
| 2026-04-30 08:25 | 6.90638 | 79.67277 | 11663 ft | 364 kts | 216° |
| 2026-04-30 08:25 | 6.88605 | 79.65713 | 12467 ft | 368 kts | 217° |
| 2026-04-30 08:26 | 6.86773 | 79.63882 | 13239 ft | 374 kts | 229° |
| 2026-04-30 08:26 | 6.85160 | 79.61830 | 13953 ft | 380 kts | 231° |
| 2026-04-30 08:26 | 6.83538 | 79.59687 | 14659 ft | 384 kts | 232° |
| 2026-04-30 08:26 | 6.81936 | 79.57565 | 15401 ft | 386 kts | 232° |
| 2026-04-30 08:27 | 6.80289 | 79.55401 | 16127 ft | 390 kts | 231° |
| 2026-04-30 08:27 | 6.78614 | 79.53220 | 16836 ft | 394 kts | 231° |
| 2026-04-30 08:27 | 6.77555 | 79.51849 | 17261 ft | 396 kts | 231° |
| 2026-04-30 08:28 | 6.76251 | 79.50169 | 17784 ft | 399 kts | 231° |
| 2026-04-30 08:28 | 6.74541 | 79.47973 | 18416 ft | 403 kts | 231° |
| 2026-04-30 08:29 | 6.72800 | 79.45741 | 19006 ft | 406 kts | 231° |
| 2026-04-30 08:29 | 6.71061 | 79.43514 | 19592 ft | 408 kts | 231° |
| 2026-04-30 08:29 | 6.69293 | 79.41252 | 20154 ft | 412 kts | 231° |
| 2026-04-30 08:29 | 6.67504 | 79.38963 | 20709 ft | 415 kts | 231° |
| 2026-04-30 08:30 | 6.65730 | 79.36692 | 21265 ft | 418 kts | 231° |
| 2026-04-30 08:30 | 6.63925 | 79.34383 | 21794 ft | 421 kts | 231° |
| 2026-04-30 08:30 | 6.62119 | 79.32073 | 22303 ft | 424 kts | 231° |
| 2026-04-30 08:30 | 6.60281 | 79.29721 | 22821 ft | 427 kts | 231° |
| 2026-04-30 08:31 | 6.58431 | 79.27354 | 23304 ft | 430 kts | 231° |
| 2026-04-30 08:31 | 6.56595 | 79.25006 | 23720 ft | 433 kts | 231° |
| 2026-04-30 08:31 | 6.54723 | 79.22612 | 24111 ft | 435 kts | 231° |
| 2026-04-30 08:31 | 6.52833 | 79.20194 | 24512 ft | 437 kts | 231° |
| 2026-04-30 08:32 | 6.50963 | 79.17804 | 24900 ft | 440 kts | 231° |
| 2026-04-30 08:32 | 6.49061 | 79.15373 | 25280 ft | 442 kts | 231° |
| 2026-04-30 08:32 | 6.47140 | 79.12930 | 25646 ft | 444 kts | 231° |
| 2026-04-30 08:32 | 6.45230 | 79.10509 | 26003 ft | 447 kts | 230° |
| 2026-04-30 08:33 | 6.43284 | 79.08046 | 26356 ft | 449 kts | 230° |
| 2026-04-30 08:33 | 6.41347 | 79.05594 | 26697 ft | 451 kts | 230° |
| 2026-04-30 08:33 | 6.39377 | 79.03098 | 27027 ft | 454 kts | 231° |
| 2026-04-30 08:33 | 6.37425 | 79.00624 | 27353 ft | 456 kts | 230° |
| 2026-04-30 08:34 | 6.35438 | 78.98106 | 27678 ft | 459 kts | 231° |
| 2026-04-30 08:34 | 6.33446 | 78.95579 | 27993 ft | 461 kts | 231° |
| 2026-04-30 08:34 | 6.31464 | 78.93067 | 28314 ft | 463 kts | 230° |
| 2026-04-30 08:34 | 6.29452 | 78.90519 | 28624 ft | 465 kts | 231° |
| 2026-04-30 08:35 | 6.27619 | 78.87815 | 28911 ft | 468 kts | 241° |
| 2026-04-30 08:35 | 6.26222 | 78.84891 | 29322 ft | 468 kts | 245° |
| 2026-04-30 08:35 | 6.24909 | 78.81892 | 29797 ft | 466 kts | 245° |
| 2026-04-30 08:35 | 6.23612 | 78.78896 | 30259 ft | 464 kts | 245° |
| 2026-04-30 08:36 | 6.22317 | 78.75958 | 30681 ft | 462 kts | 245° |
| 2026-04-30 08:36 | 6.20982 | 78.72995 | 30868 ft | 464 kts | 244° |
| 2026-04-30 08:36 | 6.19633 | 78.70045 | 30884 ft | 462 kts | 244° |
| 2026-04-30 08:37 | 6.16928 | 78.64185 | 30901 ft | 464 kts | 244° |
| 2026-04-30 08:37 | 6.14209 | 78.58292 | 30899 ft | 466 kts | 244° |
| 2026-04-30 08:38 | 6.11600 | 78.52341 | 30896 ft | 466 kts | 246° |
| 2026-04-30 08:38 | 6.09111 | 78.46301 | 30890 ft | 465 kts | 247° |
| 2026-04-30 08:39 | 6.06650 | 78.40327 | 30888 ft | 463 kts | 246° |
| 2026-04-30 08:39 | 6.04180 | 78.34385 | 30891 ft | 462 kts | 246° |
| 2026-04-30 08:40 | 6.01701 | 78.28452 | 30887 ft | 461 kts | 246° |
| 2026-04-30 08:40 | 5.99204 | 78.22484 | 30889 ft | 460 kts | 246° |
| 2026-04-30 08:41 | 5.96717 | 78.16542 | 30888 ft | 461 kts | 246° |
| 2026-04-30 08:41 | 5.94236 | 78.10616 | 30887 ft | 461 kts | 246° |
| 2026-04-30 08:42 | 5.91750 | 78.04679 | 30888 ft | 462 kts | 246° |
| 2026-04-30 08:42 | 5.89260 | 77.98736 | 30886 ft | 463 kts | 246° |
| 2026-04-30 08:43 | 5.86751 | 77.92748 | 30888 ft | 463 kts | 246° |
| 2026-04-30 08:43 | 5.84260 | 77.86804 | 30888 ft | 464 kts | 246° |
| 2026-04-30 08:44 | 5.81747 | 77.80811 | 30887 ft | 464 kts | 246° |
| 2026-04-30 08:44 | 5.79258 | 77.74877 | 30885 ft | 464 kts | 246° |
| 2026-04-30 08:45 | 5.76739 | 77.68872 | 30888 ft | 464 kts | 246° |
| 2026-04-30 08:45 | 5.74234 | 77.62904 | 30885 ft | 464 kts | 246° |
| 2026-04-30 08:46 | 5.71735 | 77.56953 | 30891 ft | 464 kts | 246° |
| 2026-04-30 08:46 | 5.69214 | 77.50952 | 30888 ft | 464 kts | 246° |
| 2026-04-30 08:47 | 5.66710 | 77.44991 | 30886 ft | 465 kts | 246° |
| 2026-04-30 08:47 | 5.64191 | 77.38997 | 30886 ft | 465 kts | 246° |
| 2026-04-30 08:48 | 5.61681 | 77.33027 | 30884 ft | 465 kts | 246° |
| 2026-04-30 08:48 | 5.59174 | 77.27066 | 30886 ft | 465 kts | 246° |
| 2026-04-30 08:49 | 5.56653 | 77.21073 | 30890 ft | 465 kts | 246° |
| 2026-04-30 08:49 | 5.54143 | 77.15108 | 30885 ft | 465 kts | 246° |
| 2026-04-30 08:50 | 5.51620 | 77.09116 | 30887 ft | 465 kts | 246° |
| 2026-04-30 08:50 | 5.49114 | 77.03165 | 30888 ft | 465 kts | 246° |
| 2026-04-30 08:51 | 5.46588 | 76.97167 | 30886 ft | 465 kts | 246° |
| 2026-04-30 08:51 | 5.44074 | 76.91202 | 30884 ft | 465 kts | 246° |
| 2026-04-30 08:52 | 5.41552 | 76.85219 | 30885 ft | 465 kts | 246° |
| 2026-04-30 08:52 | 5.39024 | 76.79221 | 30882 ft | 466 kts | 246° |
| 2026-04-30 08:53 | 5.36496 | 76.73228 | 30886 ft | 466 kts | 246° |
| 2026-04-30 08:53 | 5.33978 | 76.67259 | 30884 ft | 466 kts | 246° |
| 2026-04-30 08:54 | 5.31441 | 76.61248 | 30887 ft | 466 kts | 246° |
| 2026-04-30 08:54 | 5.29331 | 76.56251 | 30888 ft | 466 kts | 246° |
| 2026-04-30 08:55 | 5.26801 | 76.50259 | 30886 ft | 466 kts | 246° |
| 2026-04-30 08:55 | 5.24286 | 76.44304 | 30887 ft | 466 kts | 246° |
| 2026-04-30 08:56 | 5.21755 | 76.38313 | 30887 ft | 466 kts | 246° |
| 2026-04-30 08:56 | 5.19228 | 76.32335 | 30885 ft | 465 kts | 246° |
| 2026-04-30 08:57 | 5.16695 | 76.26343 | 30884 ft | 465 kts | 246° |
| 2026-04-30 08:57 | 5.14594 | 76.21372 | 30888 ft | 465 kts | 246° |
| 2026-04-30 08:58 | 5.13638 | 76.19111 | 30883 ft | 465 kts | 246° |
| 2026-04-30 08:59 | 5.11114 | 76.13146 | 30887 ft | 465 kts | 246° |
| 2026-04-30 08:59 | 5.08976 | 76.07058 | 30891 ft | 465 kts | 252° |
| 2026-04-30 09:00 | 5.07159 | 76.00792 | 30889 ft | 466 kts | 253° |
| 2026-04-30 09:00 | 5.05329 | 75.94592 | 30887 ft | 466 kts | 252° |
| 2026-04-30 09:01 | 5.03435 | 75.88369 | 30883 ft | 465 kts | 252° |
| 2026-04-30 09:01 | 5.01529 | 75.82168 | 30884 ft | 465 kts | 252° |
| 2026-04-30 09:02 | 4.98986 | 75.73893 | 30884 ft | 465 kts | 252° |
| 2026-04-30 09:03 | 4.94163 | 75.60659 | 30893 ft | 462 kts | 239° |
| 2026-04-30 09:03 | 4.90871 | 75.55121 | 30882 ft | 463 kts | 238° |
| 2026-04-30 09:04 | 4.87571 | 75.49561 | 30882 ft | 463 kts | 238° |
| 2026-04-30 09:04 | 4.84354 | 75.43992 | 30893 ft | 463 kts | 239° |
| 2026-04-30 09:05 | 4.81138 | 75.38367 | 30885 ft | 463 kts | 239° |
| 2026-04-30 09:05 | 4.77938 | 75.32769 | 30886 ft | 463 kts | 239° |
| 2026-04-30 09:06 | 4.74725 | 75.27156 | 30883 ft | 463 kts | 239° |
| 2026-04-30 09:06 | 4.71533 | 75.21580 | 30886 ft | 463 kts | 239° |
| 2026-04-30 09:07 | 4.68320 | 75.15970 | 30883 ft | 463 kts | 239° |
| 2026-04-30 09:07 | 4.65124 | 75.10396 | 30886 ft | 463 kts | 239° |
| 2026-04-30 09:08 | 4.61909 | 75.04786 | 30886 ft | 463 kts | 239° |
| 2026-04-30 09:08 | 4.58704 | 74.99195 | 30885 ft | 464 kts | 239° |
| 2026-04-30 09:09 | 4.55485 | 74.93579 | 30885 ft | 464 kts | 239° |
| 2026-04-30 09:09 | 4.52276 | 74.87982 | 30885 ft | 464 kts | 239° |
| 2026-04-30 09:10 | 4.49278 | 74.82755 | 30883 ft | 464 kts | 239° |
| 2026-04-30 09:10 | 4.46077 | 74.77173 | 30883 ft | 464 kts | 239° |
| 2026-04-30 09:11 | 4.42844 | 74.71539 | 30881 ft | 464 kts | 239° |
| 2026-04-30 09:11 | 4.39620 | 74.65919 | 30884 ft | 464 kts | 239° |
| 2026-04-30 09:12 | 4.36408 | 74.60323 | 30884 ft | 464 kts | 239° |
| 2026-04-30 09:12 | 4.33180 | 74.54699 | 30833 ft | 465 kts | 239° |
| 2026-04-30 09:13 | 4.31572 | 74.51898 | 30388 ft | 468 kts | 239° |
| 2026-04-30 09:13 | 4.29939 | 74.49054 | 29870 ft | 463 kts | 239° |
| 2026-04-30 09:13 | 4.28351 | 74.46290 | 29294 ft | 457 kts | 239° |
| 2026-04-30 09:13 | 4.26770 | 74.43537 | 28718 ft | 452 kts | 239° |
| 2026-04-30 09:14 | 4.25213 | 74.40828 | 28163 ft | 447 kts | 239° |
| 2026-04-30 09:14 | 4.23664 | 74.38134 | 27626 ft | 443 kts | 239° |
| 2026-04-30 09:14 | 4.22141 | 74.35484 | 27088 ft | 439 kts | 239° |
| 2026-04-30 09:14 | 4.20626 | 74.32847 | 26545 ft | 436 kts | 239° |
| 2026-04-30 09:15 | 4.19105 | 74.30201 | 25887 ft | 437 kts | 239° |
| 2026-04-30 09:15 | 4.17593 | 74.27572 | 25257 ft | 436 kts | 239° |
| 2026-04-30 09:15 | 4.16094 | 74.24963 | 24635 ft | 433 kts | 239° |
| 2026-04-30 09:15 | 4.14594 | 74.22354 | 24018 ft | 429 kts | 239° |
| 2026-04-30 09:16 | 4.13112 | 74.19775 | 23409 ft | 425 kts | 239° |
| 2026-04-30 09:16 | 4.11645 | 74.17224 | 22696 ft | 422 kts | 239° |
| 2026-04-30 09:16 | 4.10177 | 74.14671 | 21984 ft | 418 kts | 239° |
| 2026-04-30 09:16 | 4.08731 | 74.12155 | 21300 ft | 415 kts | 239° |
| 2026-04-30 09:17 | 4.07311 | 74.09685 | 20637 ft | 411 kts | 239° |
| 2026-04-30 09:17 | 4.05889 | 74.07213 | 19976 ft | 408 kts | 239° |
| 2026-04-30 09:17 | 4.04482 | 74.04768 | 19341 ft | 404 kts | 239° |
| 2026-04-30 09:17 | 4.03071 | 74.02313 | 18705 ft | 401 kts | 239° |
| 2026-04-30 09:18 | 4.01689 | 73.99911 | 18074 ft | 397 kts | 239° |
| 2026-04-30 09:18 | 4.00311 | 73.97515 | 17336 ft | 395 kts | 239° |
| 2026-04-30 09:18 | 3.99863 | 73.96737 | 17091 ft | 394 kts | 239° |
| 2026-04-30 09:19 | 3.99584 | 73.96252 | 16942 ft | 394 kts | 239° |
| 2026-04-30 09:19 | 3.98224 | 73.93888 | 16212 ft | 392 kts | 239° |
| 2026-04-30 09:19 | 3.96858 | 73.91515 | 15485 ft | 387 kts | 239° |
| 2026-04-30 09:20 | 3.95564 | 73.89190 | 14791 ft | 385 kts | 244° |
| 2026-04-30 09:20 | 3.94870 | 73.86595 | 14088 ft | 386 kts | 265° |
| 2026-04-30 09:20 | 3.94841 | 73.83935 | 13416 ft | 382 kts | 270° |
| 2026-04-30 09:20 | 3.94887 | 73.81265 | 12661 ft | 380 kts | 270° |
| 2026-04-30 09:21 | 3.94912 | 73.78650 | 11865 ft | 378 kts | 269° |
| 2026-04-30 09:21 | 3.94921 | 73.76018 | 11058 ft | 377 kts | 269° |
| 2026-04-30 09:21 | 3.94921 | 73.73384 | 10470 ft | 367 kts | 268° |
| 2026-04-30 09:21 | 3.94920 | 73.70948 | 10277 ft | 337 kts | 268° |
| 2026-04-30 09:22 | 3.94921 | 73.68694 | 10129 ft | 312 kts | 268° |
| 2026-04-30 09:22 | 3.94922 | 73.66609 | 10019 ft | 289 kts | 268° |
| 2026-04-30 09:22 | 3.94921 | 73.64647 | 9778 ft | 275 kts | 268° |
| 2026-04-30 09:22 | 3.94772 | 73.62799 | 9492 ft | 260 kts | 251° |
| 2026-04-30 09:23 | 3.93898 | 73.61302 | 9232 ft | 243 kts | 221° |
| 2026-04-30 09:23 | 3.92522 | 73.60467 | 9027 ft | 224 kts | 201° |
| 2026-04-30 09:23 | 3.91095 | 73.59910 | 8789 ft | 215 kts | 199° |
| 2026-04-30 09:23 | 3.89715 | 73.59361 | 8432 ft | 215 kts | 208° |
| 2026-04-30 09:24 | 3.88780 | 73.58237 | 8010 ft | 215 kts | 252° |
| 2026-04-30 09:24 | 3.88887 | 73.56778 | 7608 ft | 214 kts | 290° |